Time,TemperatureF,DewpointF,PressureIn,WindDirection,WindDirectionDegrees,WindSpeedMPH,WindSpeedGustMPH,Humidity,HourlyPrecipIn,Conditions,Clouds,dailyrainin,SoftwareType,DateUTC
2013-03-21 00:00:00,26.6,20.4,29.92,WNW,283,0.0,0.0,77,0.00,,---,0.00,VWS V14.00,2013-03-21 04:00:00,
2013-03-21 00:05:00,26.6,20.4,29.92,WNW,283,0.0,0.0,77,0.00,,---,0.00,VWS V14.00,2013-03-21 04:05:00,
2013-03-21 00:10:00,26.5,20.3,29.92,WNW,283,0.0,0.0,77,0.00,,---,0.00,VWS V14.00,2013-03-21 04:10:00,
2013-03-21 00:15:00,26.5,20.3,29.92,WNW,283,0.0,1.0,77,0.00,,---,0.00,VWS V14.00,2013-03-21 04:15:00,
2013-03-21 00:20:00,26.5,20.3,29.92,WNW,283,0.0,0.0,77,0.00,,---,0.00,VWS V14.00,2013-03-21 04:20:00,
2013-03-21 00:25:00,26.5,20.3,29.92,WNW,283,0.0,2.0,77,0.00,,---,0.00,VWS V14.00,2013-03-21 04:25:00,
2013-03-21 00:30:00,26.6,20.4,29.92,WSW,250,2.0,2.0,77,0.00,,---,0.00,VWS V14.00,2013-03-21 04:30:00,
2013-03-21 00:35:00,26.6,20.4,29.91,WNW,288,0.0,2.0,77,0.00,,---,0.00,VWS V14.00,2013-03-21 04:35:00,
2013-03-21 00:40:00,26.5,20.3,29.92,WNW,296,0.0,7.0,77,0.00,,---,0.00,VWS V14.00,2013-03-21 04:40:00,
2013-03-21 00:45:00,26.5,20.3,29.91,WNW,296,0.0,0.0,77,0.00,,---,0.00,VWS V14.00,2013-03-21 04:45:00,
2013-03-21 00:50:00,26.4,20.2,29.91,SW,232,0.0,2.0,77,0.00,,---,0.00,VWS V14.00,2013-03-21 04:50:00,
2013-03-21 00:55:00,26.4,20.2,29.91,NW,311,0.0,1.0,77,0.00,,---,0.00,VWS V14.00,2013-03-21 04:55:00,
2013-03-21 01:00:00,26.3,19.8,29.91,WSW,257,1.0,6.0,76,0.00,,---,0.00,VWS V14.00,2013-03-21 05:00:00,
2013-03-21 01:05:00,26.3,19.8,29.91,WSW,252,0.0,3.0,76,0.00,,---,0.00,VWS V14.00,2013-03-21 05:05:00,
2013-03-21 01:10:00,26.3,19.8,29.91,WSW,252,0.0,1.0,76,0.00,,---,0.00,VWS V14.00,2013-03-21 05:10:00,
2013-03-21 01:15:00,26.3,19.5,29.91,WSW,249,3.0,3.0,75,0.00,,---,0.00,VWS V14.00,2013-03-21 05:15:00,
2013-03-21 01:20:00,26.2,19.1,29.91,SW,227,0.0,1.0,74,0.00,,---,0.00,VWS V14.00,2013-03-21 05:20:00,
2013-03-21 01:25:00,26.1,19.0,29.91,SW,227,0.0,0.0,74,0.00,,---,0.00,VWS V14.00,2013-03-21 05:25:00,
2013-03-21 01:30:00,26.0,18.9,29.91,SW,227,0.0,0.0,74,0.00,,---,0.00,VWS V14.00,2013-03-21 05:30:00,
2013-03-21 01:35:00,26.0,18.9,29.91,WSW,242,0.0,1.0,74,0.00,,---,0.00,VWS V14.00,2013-03-21 05:35:00,
2013-03-21 01:40:00,26.0,18.9,29.91,WSW,242,0.0,0.0,74,0.00,,---,0.00,VWS V14.00,2013-03-21 05:40:00,
2013-03-21 01:45:00,25.9,18.8,29.90,WNW,287,0.0,1.0,74,0.00,,---,0.00,VWS V14.00,2013-03-21 05:45:00,
2013-03-21 01:50:00,25.9,18.8,29.91,WNW,286,0.0,3.0,74,0.00,,---,0.00,VWS V14.00,2013-03-21 05:50:00,
2013-03-21 01:55:00,25.8,19.0,29.91,WNW,303,4.0,5.0,75,0.00,,---,0.00,VWS V14.00,2013-03-21 05:55:00,
2013-03-21 02:00:00,25.7,19.2,29.91,WSW,257,0.0,2.0,76,0.00,,---,0.00,VWS V14.00,2013-03-21 06:00:00,
2013-03-21 02:05:00,25.5,19.0,29.91,West,269,0.0,4.0,76,0.00,,---,0.00,VWS V14.00,2013-03-21 06:05:00,
2013-03-21 02:10:00,25.2,18.7,29.91,West,270,0.0,0.0,76,0.00,,---,0.00,VWS V14.00,2013-03-21 06:10:00,
2013-03-21 02:15:00,25.0,18.8,29.91,West,270,0.0,2.0,77,0.00,,---,0.00,VWS V14.00,2013-03-21 06:15:00,
2013-03-21 02:20:00,24.9,19.0,29.91,West,276,2.0,4.0,78,0.00,,---,0.00,VWS V14.00,2013-03-21 06:20:00,
2013-03-21 02:25:00,24.7,18.8,29.90,West,276,0.0,2.0,78,0.00,,---,0.00,VWS V14.00,2013-03-21 06:25:00,
2013-03-21 02:30:00,24.5,18.9,29.90,West,276,0.0,0.0,79,0.00,,---,0.00,VWS V14.00,2013-03-21 06:30:00,
2013-03-21 02:35:00,24.4,18.8,29.90,West,276,0.0,0.0,79,0.00,,---,0.00,VWS V14.00,2013-03-21 06:35:00,
2013-03-21 02:40:00,24.3,19.0,29.90,West,276,0.0,0.0,80,0.00,,---,0.00,VWS V14.00,2013-03-21 06:40:00,
2013-03-21 02:45:00,24.1,18.8,29.90,West,276,0.0,3.0,80,0.00,,---,0.00,VWS V14.00,2013-03-21 06:45:00,
2013-03-21 02:50:00,24.0,19.0,29.90,West,276,1.0,1.0,81,0.00,,---,0.00,VWS V14.00,2013-03-21 06:50:00,
2013-03-21 02:55:00,23.9,18.9,29.90,WNW,294,2.0,7.0,81,0.00,,---,0.00,VWS V14.00,2013-03-21 06:55:00,
2013-03-21 03:00:00,23.8,19.1,29.90,West,274,0.0,1.0,82,0.00,,---,0.00,VWS V14.00,2013-03-21 07:00:00,
2013-03-21 03:05:00,23.7,19.0,29.90,SW,220,1.0,2.0,82,0.00,,---,0.00,VWS V14.00,2013-03-21 07:05:00,
2013-03-21 03:10:00,23.5,19.1,29.90,NW,320,2.0,7.0,83,0.00,,---,0.00,VWS V14.00,2013-03-21 07:10:00,
2013-03-21 03:15:00,23.4,19.0,29.90,West,279,0.0,2.0,83,0.00,,---,0.00,VWS V14.00,2013-03-21 07:15:00,
2013-03-21 03:20:00,23.3,19.2,29.90,West,279,0.0,1.0,84,0.00,,---,0.00,VWS V14.00,2013-03-21 07:20:00,
2013-03-21 03:25:00,23.1,19.0,29.90,West,279,1.0,1.0,84,0.00,,---,0.00,VWS V14.00,2013-03-21 07:25:00,
2013-03-21 03:30:00,23.0,18.9,29.89,West,279,0.0,1.0,84,0.00,,---,0.00,VWS V14.00,2013-03-21 07:30:00,
2013-03-21 03:35:00,22.9,18.8,29.89,WSW,250,0.0,1.0,84,0.00,,---,0.00,VWS V14.00,2013-03-21 07:35:00,
2013-03-21 03:40:00,22.7,18.9,29.89,SSW,207,1.0,3.0,85,0.00,,---,0.00,VWS V14.00,2013-03-21 07:40:00,
2013-03-21 03:45:00,22.6,18.5,29.89,SW,236,0.0,5.0,84,0.00,,---,0.00,VWS V14.00,2013-03-21 07:45:00,
2013-03-21 03:50:00,22.4,18.6,29.89,NW,315,0.0,1.0,85,0.00,,---,0.00,VWS V14.00,2013-03-21 07:50:00,
2013-03-21 03:55:00,22.3,18.5,29.89,SSW,209,0.0,5.0,85,0.00,,---,0.00,VWS V14.00,2013-03-21 07:55:00,
2013-03-21 04:00:00,22.1,18.3,29.89,WNW,294,3.0,6.0,85,0.00,,---,0.00,VWS V14.00,2013-03-21 08:00:00,
2013-03-21 04:05:00,22.1,18.3,29.89,NW,306,0.0,1.0,85,0.00,,---,0.00,VWS V14.00,2013-03-21 08:05:00,
2013-03-21 04:10:00,22.0,18.2,29.89,West,265,0.0,0.0,85,0.00,,---,0.00,VWS V14.00,2013-03-21 08:10:00,
2013-03-21 04:15:00,22.0,18.2,29.89,West,265,0.0,0.0,85,0.00,,---,0.00,VWS V14.00,2013-03-21 08:15:00,
2013-03-21 04:20:00,21.9,18.1,29.89,WNW,290,0.0,2.0,85,0.00,,---,0.00,VWS V14.00,2013-03-21 08:20:00,
2013-03-21 04:25:00,21.8,18.0,29.89,WNW,290,0.0,2.0,85,0.00,,---,0.00,VWS V14.00,2013-03-21 08:25:00,
2013-03-21 04:30:00,21.7,17.9,29.89,WNW,290,0.0,1.0,85,0.00,,---,0.00,VWS V14.00,2013-03-21 08:30:00,
2013-03-21 04:35:00,21.7,17.9,29.89,WNW,290,0.0,0.0,85,0.00,,---,0.00,VWS V14.00,2013-03-21 08:35:00,
2013-03-21 04:40:00,21.7,17.9,29.88,WNW,290,0.0,0.0,85,0.00,,---,0.00,VWS V14.00,2013-03-21 08:40:00,
2013-03-21 04:45:00,21.6,17.8,29.88,WNW,290,0.0,0.0,85,0.00,,---,0.00,VWS V14.00,2013-03-21 08:45:00,
2013-03-21 04:50:00,21.6,17.8,29.89,WNW,290,0.0,0.0,85,0.00,,---,0.00,VWS V14.00,2013-03-21 08:50:00,
2013-03-21 04:55:00,21.5,17.7,29.89,WNW,290,0.0,0.0,85,0.00,,---,0.00,VWS V14.00,2013-03-21 08:55:00,
2013-03-21 05:00:00,21.4,17.6,29.89,WNW,290,0.0,0.0,85,0.00,,---,0.00,VWS V14.00,2013-03-21 09:00:00,
2013-03-21 05:05:00,21.3,17.5,29.89,WNW,290,0.0,0.0,85,0.00,,---,0.00,VWS V14.00,2013-03-21 09:05:00,
2013-03-21 05:10:00,21.3,17.5,29.89,WNW,290,0.0,0.0,85,0.00,,---,0.00,VWS V14.00,2013-03-21 09:10:00,
2013-03-21 05:15:00,21.2,17.4,29.89,WNW,290,1.0,1.0,85,0.00,,---,0.00,VWS V14.00,2013-03-21 09:15:00,
2013-03-21 05:20:00,21.1,17.3,29.89,WNW,290,0.0,1.0,85,0.00,,---,0.00,VWS V14.00,2013-03-21 09:20:00,
2013-03-21 05:25:00,21.1,17.3,29.89,WNW,290,0.0,0.0,85,0.00,,---,0.00,VWS V14.00,2013-03-21 09:25:00,
2013-03-21 05:30:00,21.0,17.2,29.89,WNW,290,0.0,4.0,85,0.00,,---,0.00,VWS V14.00,2013-03-21 09:30:00,
2013-03-21 05:35:00,20.9,17.1,29.89,West,279,0.0,0.0,85,0.00,,---,0.00,VWS V14.00,2013-03-21 09:35:00,
2013-03-21 05:40:00,20.9,17.1,29.89,WNW,286,0.0,1.0,85,0.00,,---,0.00,VWS V14.00,2013-03-21 09:40:00,
2013-03-21 05:45:00,20.8,16.7,29.89,WNW,286,0.0,1.0,84,0.00,,---,0.00,VWS V14.00,2013-03-21 09:45:00,
2013-03-21 05:50:00,20.7,16.6,29.89,WNW,286,0.0,0.0,84,0.00,,---,0.00,VWS V14.00,2013-03-21 09:50:00,
2013-03-21 05:55:00,20.7,16.6,29.89,WNW,286,0.0,2.0,84,0.00,,---,0.00,VWS V14.00,2013-03-21 09:55:00,
2013-03-21 06:00:00,20.6,16.5,29.89,West,266,0.0,0.0,84,0.00,,---,0.00,VWS V14.00,2013-03-21 10:00:00,
2013-03-21 06:05:00,20.7,16.6,29.89,SSE,161,5.0,6.0,84,0.00,,---,0.00,VWS V14.00,2013-03-21 10:05:00,
2013-03-21 06:10:00,20.7,16.6,29.89,NW,313,1.0,4.0,84,0.00,,---,0.00,VWS V14.00,2013-03-21 10:10:00,
2013-03-21 06:15:00,20.7,16.6,29.89,West,279,1.0,4.0,84,0.00,,---,0.00,VWS V14.00,2013-03-21 10:15:00,
2013-03-21 06:20:00,20.7,16.6,29.89,West,279,0.0,0.0,84,0.00,,---,0.00,VWS V14.00,2013-03-21 10:20:00,
2013-03-21 06:25:00,20.6,16.5,29.89,West,279,0.0,1.0,84,0.00,,---,0.00,VWS V14.00,2013-03-21 10:25:00,
2013-03-21 06:30:00,20.6,16.5,29.89,West,279,0.0,0.0,84,0.00,,---,0.00,VWS V14.00,2013-03-21 10:30:00,
2013-03-21 06:35:00,20.6,16.5,29.89,West,279,0.0,1.0,84,0.00,,---,0.00,VWS V14.00,2013-03-21 10:35:00,
2013-03-21 06:40:00,20.6,16.5,29.88,West,279,0.0,0.0,84,0.00,,---,0.00,VWS V14.00,2013-03-21 10:40:00,
2013-03-21 06:45:00,20.5,16.4,29.88,West,279,0.0,0.0,84,0.00,,---,0.00,VWS V14.00,2013-03-21 10:45:00,
2013-03-21 06:50:00,20.4,16.4,29.89,West,279,0.0,1.0,84,0.00,,---,0.00,VWS V14.00,2013-03-21 10:50:00,
2013-03-21 06:55:00,20.2,16.1,29.89,West,259,0.0,1.0,84,0.00,,---,0.00,VWS V14.00,2013-03-21 10:55:00,
2013-03-21 07:00:00,19.9,15.6,29.88,West,273,2.0,4.0,83,0.00,,---,0.00,VWS V14.00,2013-03-21 11:00:00,
2013-03-21 07:05:00,19.7,15.1,29.88,WNW,293,0.0,2.0,82,0.00,,---,0.00,VWS V14.00,2013-03-21 11:05:00,
2013-03-21 07:10:00,19.5,14.9,29.88,West,273,0.0,1.0,82,0.00,,---,0.00,VWS V14.00,2013-03-21 11:10:00,
2013-03-21 07:15:00,19.4,14.5,29.89,West,273,0.0,0.0,81,0.00,,---,0.00,VWS V14.00,2013-03-21 11:15:00,
2013-03-21 07:20:00,19.4,14.5,29.88,West,273,0.0,1.0,81,0.00,,---,0.00,VWS V14.00,2013-03-21 11:20:00,
2013-03-21 07:25:00,19.3,14.4,29.88,West,273,0.0,0.0,81,0.00,,---,0.00,VWS V14.00,2013-03-21 11:25:00,
2013-03-21 07:30:00,19.2,14.3,29.89,West,273,0.0,1.0,81,0.00,,---,0.00,VWS V14.00,2013-03-21 11:30:00,
2013-03-21 07:35:00,19.1,14.0,29.89,SW,234,1.0,2.0,80,0.00,,---,0.00,VWS V14.00,2013-03-21 11:35:00,
2013-03-21 07:40:00,19.1,14.0,29.89,WNW,298,0.0,1.0,80,0.00,,---,0.00,VWS V14.00,2013-03-21 11:40:00,
2013-03-21 07:45:00,19.0,13.9,29.89,WNW,298,0.0,0.0,80,0.00,,---,0.00,VWS V14.00,2013-03-21 11:45:00,
2013-03-21 07:50:00,18.9,13.8,29.88,WNW,299,0.0,0.0,80,0.00,,---,0.00,VWS V14.00,2013-03-21 11:50:00,
2013-03-21 07:55:00,18.9,13.8,29.89,WNW,299,0.0,0.0,80,0.00,,---,0.00,VWS V14.00,2013-03-21 11:55:00,
2013-03-21 08:00:00,18.8,13.7,29.89,WNW,299,2.0,2.0,80,0.00,,---,0.00,VWS V14.00,2013-03-21 12:00:00,
2013-03-21 08:05:00,18.6,13.5,29.89,WSW,239,1.0,3.0,80,0.00,,---,0.00,VWS V14.00,2013-03-21 12:05:00,
2013-03-21 08:10:00,18.6,13.5,29.89,SW,236,0.0,1.0,80,0.00,,---,0.00,VWS V14.00,2013-03-21 12:10:00,
2013-03-21 08:15:00,18.7,13.6,29.89,SW,236,0.0,0.0,80,0.00,,---,0.00,VWS V14.00,2013-03-21 12:15:00,
2013-03-21 08:20:00,18.8,13.4,29.90,West,279,0.0,1.0,79,0.00,,---,0.00,VWS V14.00,2013-03-21 12:20:00,
2013-03-21 08:25:00,18.9,13.5,29.90,West,279,5.0,5.0,79,0.00,,---,0.00,VWS V14.00,2013-03-21 12:25:00,
2013-03-21 08:30:00,19.0,13.6,29.89,SW,228,0.0,1.0,79,0.00,,---,0.00,VWS V14.00,2013-03-21 12:30:00,
2013-03-21 08:35:00,19.1,13.7,29.89,SW,218,0.0,4.0,79,0.00,,---,0.00,VWS V14.00,2013-03-21 12:35:00,
2013-03-21 08:40:00,19.3,13.3,29.89,WNW,302,0.0,5.0,77,0.00,,---,0.00,VWS V14.00,2013-03-21 12:40:00,
2013-03-21 08:45:00,19.5,13.5,29.90,West,268,0.0,3.0,77,0.00,,---,0.00,VWS V14.00,2013-03-21 12:45:00,
2013-03-21 08:50:00,19.7,13.4,29.89,WNW,292,4.0,5.0,76,0.00,,---,0.00,VWS V14.00,2013-03-21 12:50:00,
2013-03-21 08:55:00,19.8,13.5,29.89,WSW,246,0.0,1.0,76,0.00,,---,0.00,VWS V14.00,2013-03-21 12:55:00,
2013-03-21 09:01:00,20.0,13.7,29.90,NW,312,0.0,4.0,76,0.00,,---,0.00,VWS V14.00,2013-03-21 13:01:00,
2013-03-21 09:06:00,20.3,13.7,29.89,West,262,1.0,3.0,75,0.00,,---,0.00,VWS V14.00,2013-03-21 13:06:00,
2013-03-21 09:11:00,20.5,13.2,29.89,SW,230,2.0,6.0,73,0.00,,---,0.00,VWS V14.00,2013-03-21 13:11:00,
2013-03-21 09:16:00,20.8,12.9,29.89,WNW,284,2.0,5.0,71,0.00,,---,0.00,VWS V14.00,2013-03-21 13:16:00,
2013-03-21 09:21:00,21.0,12.8,29.90,West,268,2.0,4.0,70,0.00,,---,0.00,VWS V14.00,2013-03-21 13:21:00,
2013-03-21 09:26:00,21.3,12.7,29.90,NW,309,6.0,7.0,69,0.00,,---,0.00,VWS V14.00,2013-03-21 13:26:00,
2013-03-21 09:31:00,21.6,12.4,29.90,West,279,4.0,4.0,67,0.00,,---,0.00,VWS V14.00,2013-03-21 13:31:00,
2013-03-21 09:36:00,21.9,12.3,29.90,SW,214,0.0,6.0,66,0.00,,---,0.00,VWS V14.00,2013-03-21 13:36:00,
2013-03-21 09:41:00,22.3,12.7,29.90,South,186,10.0,10.0,66,0.00,,---,0.00,VWS V14.00,2013-03-21 13:41:00,
2013-03-21 09:46:00,22.7,12.7,29.90,NW,304,0.0,4.0,65,0.00,,---,0.00,VWS V14.00,2013-03-21 13:46:00,
2013-03-21 09:51:00,22.9,12.6,29.90,SW,231,0.0,1.0,64,0.00,,---,0.00,VWS V14.00,2013-03-21 13:51:00,
2013-03-21 09:56:00,23.2,12.5,29.90,WSW,254,3.0,6.0,63,0.00,,---,0.00,VWS V14.00,2013-03-21 13:56:00,
2013-03-21 10:01:00,23.5,12.8,29.90,WNW,282,2.0,4.0,63,0.00,,---,0.00,VWS V14.00,2013-03-21 14:01:00,
2013-03-21 10:06:00,23.7,12.2,29.90,West,265,2.0,4.0,61,0.00,,---,0.00,VWS V14.00,2013-03-21 14:06:00,
2013-03-21 10:11:00,23.9,12.4,29.90,WSW,240,0.0,3.0,61,0.00,,---,0.00,VWS V14.00,2013-03-21 14:11:00,
2013-03-21 10:16:00,24.2,12.7,29.90,WNW,288,3.0,7.0,61,0.00,,---,0.00,VWS V14.00,2013-03-21 14:16:00,
2013-03-21 10:21:00,24.2,12.3,29.90,West,269,6.0,10.0,60,0.00,,---,0.00,VWS V14.00,2013-03-21 14:21:00,
2013-03-21 10:26:00,24.1,12.2,29.90,West,273,2.0,7.0,60,0.00,,---,0.00,VWS V14.00,2013-03-21 14:26:00,
2013-03-21 10:31:00,24.3,12.4,29.90,WSW,242,3.0,7.0,60,0.00,,---,0.00,VWS V14.00,2013-03-21 14:31:00,
2013-03-21 10:36:00,24.7,13.2,29.90,NNW,328,2.0,7.0,61,0.00,,---,0.00,VWS V14.00,2013-03-21 14:36:00,
2013-03-21 10:41:00,24.9,13.4,29.90,South,176,5.0,5.0,61,0.00,,---,0.00,VWS V14.00,2013-03-21 14:41:00,
2013-03-21 10:46:00,25.3,13.4,29.90,West,264,3.0,5.0,60,0.00,,---,0.00,VWS V14.00,2013-03-21 14:46:00,
2013-03-21 10:51:00,25.7,13.8,29.90,WNW,287,5.0,10.0,60,0.00,,---,0.00,VWS V14.00,2013-03-21 14:51:00,
2013-03-21 10:56:00,25.9,13.6,29.90,SSE,161,1.0,6.0,59,0.00,,---,0.00,VWS V14.00,2013-03-21 14:56:00,
2013-03-21 11:01:00,26.2,14.2,29.90,SW,231,0.0,10.0,60,0.00,,---,0.00,VWS V14.00,2013-03-21 15:01:00,
2013-03-21 11:07:00,26.3,13.6,29.90,SW,229,1.0,11.0,58,0.00,,---,0.00,VWS V14.00,2013-03-21 15:07:00,
2013-03-21 11:12:00,26.0,12.9,29.90,WNW,289,4.0,6.0,57,0.00,,---,0.00,VWS V14.00,2013-03-21 15:12:00,
2013-03-21 11:17:00,25.7,12.6,29.90,WSW,256,1.0,3.0,57,0.00,,---,0.00,VWS V14.00,2013-03-21 15:17:00,
2013-03-21 11:22:00,25.5,12.0,29.90,WSW,237,2.0,11.0,56,0.00,,---,0.00,VWS V14.00,2013-03-21 15:22:00,
2013-03-21 11:27:00,25.2,11.3,29.90,South,178,3.0,7.0,55,0.00,,---,0.00,VWS V14.00,2013-03-21 15:27:00,
2013-03-21 11:32:00,25.3,12.6,29.90,WSW,243,4.0,6.0,58,0.00,,---,0.00,VWS V14.00,2013-03-21 15:32:00,
2013-03-21 11:37:00,25.6,13.7,29.90,WNW,303,6.0,10.0,60,0.00,,---,0.00,VWS V14.00,2013-03-21 15:37:00,
2013-03-21 11:42:00,25.4,11.9,29.90,SW,223,4.0,9.0,56,0.00,,---,0.00,VWS V14.00,2013-03-21 15:42:00,
2013-03-21 11:47:00,25.3,12.2,29.90,WSW,242,2.0,9.0,57,0.00,,---,0.00,VWS V14.00,2013-03-21 15:47:00,
2013-03-21 11:52:00,25.2,11.7,29.91,SW,236,2.0,10.0,56,0.00,,---,0.00,VWS V14.00,2013-03-21 15:52:00,
2013-03-21 11:57:00,25.0,11.5,29.90,West,264,1.0,7.0,56,0.00,,---,0.00,VWS V14.00,2013-03-21 15:57:00,
2013-03-21 12:02:00,25.0,11.9,29.91,NW,315,6.0,7.0,57,0.00,,---,0.00,VWS V14.00,2013-03-21 16:02:00,
2013-03-21 12:07:00,24.9,11.8,29.90,SW,215,3.0,10.0,57,0.00,,---,0.00,VWS V14.00,2013-03-21 16:07:00,
2013-03-21 12:12:00,25.4,13.1,29.91,WNW,284,4.0,8.0,59,0.00,,---,0.00,VWS V14.00,2013-03-21 16:12:00,
2013-03-21 12:17:00,25.4,11.9,29.90,SW,227,5.0,9.0,56,0.00,,---,0.00,VWS V14.00,2013-03-21 16:17:00,
2013-03-21 12:22:00,25.3,12.2,29.90,NW,309,3.0,6.0,57,0.00,,---,0.00,VWS V14.00,2013-03-21 16:22:00,
2013-03-21 12:27:00,25.1,12.0,29.90,West,270,0.0,12.0,57,0.00,,---,0.00,VWS V14.00,2013-03-21 16:27:00,
2013-03-21 12:32:00,25.1,11.6,29.91,WNW,289,2.0,14.0,56,0.00,,---,0.00,VWS V14.00,2013-03-21 16:32:00,
2013-03-21 12:37:00,25.0,11.5,29.91,WNW,284,0.0,16.0,56,0.00,,---,0.00,VWS V14.00,2013-03-21 16:37:00,
2013-03-21 12:42:00,25.2,12.9,29.90,WNW,301,5.0,5.0,59,0.00,,---,0.00,VWS V14.00,2013-03-21 16:42:00,
2013-03-21 12:47:00,25.6,13.3,29.90,SSW,192,6.0,10.0,59,0.00,,---,0.00,VWS V14.00,2013-03-21 16:47:00,
2013-03-21 12:52:00,25.9,13.2,29.90,South,191,1.0,4.0,58,0.00,,---,0.00,VWS V14.00,2013-03-21 16:52:00,
2013-03-21 12:57:00,26.0,13.3,29.90,SSW,193,5.0,7.0,58,0.00,,---,0.00,VWS V14.00,2013-03-21 16:57:00,
2013-03-21 13:02:00,25.8,12.3,29.91,NW,304,2.0,11.0,56,0.00,,---,0.00,VWS V14.00,2013-03-21 17:02:00,
2013-03-21 13:07:00,25.6,12.1,29.91,NW,317,2.0,11.0,56,0.00,,---,0.00,VWS V14.00,2013-03-21 17:07:00,
2013-03-21 13:12:00,25.6,12.9,29.91,SW,215,0.0,6.0,58,0.00,,---,0.00,VWS V14.00,2013-03-21 17:12:00,
2013-03-21 13:17:00,25.7,12.6,29.91,NW,311,0.0,7.0,57,0.00,,---,0.00,VWS V14.00,2013-03-21 17:17:00,
2013-03-21 13:22:00,25.6,12.1,29.91,NW,313,0.0,11.0,56,0.00,,---,0.00,VWS V14.00,2013-03-21 17:22:00,
2013-03-21 13:28:00,25.9,13.6,29.90,SSW,192,0.0,4.0,59,0.00,,---,0.00,VWS V14.00,2013-03-21 17:28:00,
2013-03-21 13:33:00,26.1,13.0,29.91,NW,323,0.0,9.0,57,0.00,,---,0.00,VWS V14.00,2013-03-21 17:33:00,
2013-03-21 13:38:00,26.3,12.8,29.91,WNW,292,4.0,14.0,56,0.00,,---,0.00,VWS V14.00,2013-03-21 17:38:00,
2013-03-21 13:43:00,26.3,12.3,29.91,WSW,241,1.0,10.0,55,0.00,,---,0.00,VWS V14.00,2013-03-21 17:43:00,
2013-03-21 13:48:00,26.6,12.6,29.90,SSW,199,5.0,9.0,55,0.00,,---,0.00,VWS V14.00,2013-03-21 17:48:00,
2013-03-21 13:53:00,26.6,12.6,29.90,SW,219,4.0,9.0,55,0.00,,---,0.00,VWS V14.00,2013-03-21 17:53:00,
2013-03-21 13:58:00,26.7,13.1,29.90,WSW,250,2.0,7.0,56,0.00,,---,0.00,VWS V14.00,2013-03-21 17:58:00,
2013-03-21 14:03:00,26.7,13.1,29.90,SW,229,1.0,5.0,56,0.00,,---,0.00,VWS V14.00,2013-03-21 18:03:00,
2013-03-21 14:08:00,26.9,12.9,29.90,NW,304,0.0,9.0,55,0.00,,---,0.00,VWS V14.00,2013-03-21 18:08:00,
2013-03-21 14:13:00,26.9,12.9,29.90,SSW,200,4.0,7.0,55,0.00,,---,0.00,VWS V14.00,2013-03-21 18:13:00,
2013-03-21 14:18:00,27.0,13.8,29.90,South,190,5.0,10.0,57,0.00,,---,0.00,VWS V14.00,2013-03-21 18:18:00,
2013-03-21 14:23:00,27.2,14.0,29.90,NW,320,5.0,7.0,57,0.00,,---,0.00,VWS V14.00,2013-03-21 18:23:00,
2013-03-21 14:28:00,27.3,13.3,29.90,SW,219,2.0,10.0,55,0.00,,---,0.00,VWS V14.00,2013-03-21 18:28:00,
2013-03-21 14:33:00,27.1,13.1,29.90,WNW,292,2.0,7.0,55,0.00,,---,0.00,VWS V14.00,2013-03-21 18:33:00,
2013-03-21 14:38:00,27.3,13.7,29.91,WNW,293,0.0,13.0,56,0.00,,---,0.00,VWS V14.00,2013-03-21 18:38:00,
2013-03-21 14:43:00,27.4,14.2,29.90,SSW,200,3.0,9.0,57,0.00,,---,0.00,VWS V14.00,2013-03-21 18:43:00,
2013-03-21 14:48:00,27.7,14.5,29.90,SSW,194,2.0,7.0,57,0.00,,---,0.00,VWS V14.00,2013-03-21 18:48:00,
2013-03-21 14:53:00,28.5,16.0,29.90,WSW,239,7.0,11.0,59,0.00,,---,0.00,VWS V14.00,2013-03-21 18:53:00,
2013-03-21 14:58:00,28.6,14.5,29.90,SSW,199,6.0,10.0,55,0.00,,---,0.00,VWS V14.00,2013-03-21 18:58:00,
2013-03-21 15:03:00,28.5,14.4,29.89,South,184,4.0,6.0,55,0.00,,---,0.00,VWS V14.00,2013-03-21 19:03:00,
2013-03-21 15:08:00,28.3,13.8,29.89,SSE,168,3.0,4.0,54,0.00,,---,0.00,VWS V14.00,2013-03-21 19:08:00,
2013-03-21 15:13:00,28.5,14.8,29.90,SSW,207,5.0,11.0,56,0.00,,---,0.00,VWS V14.00,2013-03-21 19:13:00,
2013-03-21 15:18:00,28.5,14.4,29.90,West,263,1.0,7.0,55,0.00,,---,0.00,VWS V14.00,2013-03-21 19:18:00,
2013-03-21 15:23:00,28.5,14.4,29.90,WNW,292,0.0,4.0,55,0.00,,---,0.00,VWS V14.00,2013-03-21 19:23:00,
2013-03-21 15:28:00,28.5,13.6,29.90,WSW,252,5.0,6.0,53,0.00,,---,0.00,VWS V14.00,2013-03-21 19:28:00,
2013-03-21 15:33:00,28.4,13.9,29.89,SE,143,2.0,6.0,54,0.00,,---,0.00,VWS V14.00,2013-03-21 19:33:00,
2013-03-21 15:38:00,28.4,13.9,29.90,WSW,250,1.0,7.0,54,0.00,,---,0.00,VWS V14.00,2013-03-21 19:38:00,
2013-03-21 15:43:00,28.3,13.4,29.90,SSW,199,0.0,4.0,53,0.00,,---,0.00,VWS V14.00,2013-03-21 19:43:00,
2013-03-21 15:48:00,28.4,14.3,29.90,West,259,6.0,11.0,55,0.00,,---,0.00,VWS V14.00,2013-03-21 19:48:00,
2013-03-21 15:53:00,28.6,14.5,29.90,West,277,4.0,6.0,55,0.00,,---,0.00,VWS V14.00,2013-03-21 19:53:00,
2013-03-21 15:58:00,29.0,14.4,29.90,SW,234,2.0,6.0,54,0.00,,---,0.00,VWS V14.00,2013-03-21 19:58:00,
2013-03-21 16:03:00,29.0,14.0,29.90,West,274,0.0,15.0,53,0.00,,---,0.00,VWS V14.00,2013-03-21 20:03:00,
2013-03-21 16:08:00,28.8,13.4,29.90,WSW,246,0.0,10.0,52,0.00,,---,0.00,VWS V14.00,2013-03-21 20:08:00,
2013-03-21 16:13:00,28.7,13.3,29.90,WNW,296,2.0,12.0,52,0.00,,---,0.00,VWS V14.00,2013-03-21 20:13:00,
2013-03-21 16:18:00,28.5,14.0,29.90,SSW,208,3.0,7.0,54,0.00,,---,0.00,VWS V14.00,2013-03-21 20:18:00,
2013-03-21 16:23:00,28.6,14.9,29.90,NW,319,4.0,11.0,56,0.00,,---,0.00,VWS V14.00,2013-03-21 20:23:00,
2013-03-21 16:28:00,28.7,14.6,29.90,SW,219,1.0,10.0,55,0.00,,---,0.00,VWS V14.00,2013-03-21 20:28:00,
2013-03-21 16:33:00,28.9,15.2,29.90,SSW,197,3.0,7.0,56,0.00,,---,0.00,VWS V14.00,2013-03-21 20:33:00,
2013-03-21 16:38:00,29.0,15.3,29.90,WSW,248,0.0,8.0,56,0.00,,---,0.00,VWS V14.00,2013-03-21 20:38:00,
2013-03-21 16:43:00,29.5,16.6,29.90,WSW,242,1.0,8.0,58,0.00,,---,0.00,VWS V14.00,2013-03-21 20:43:00,
2013-03-21 16:48:00,30.0,16.6,29.90,West,270,0.0,9.0,57,0.00,,---,0.00,VWS V14.00,2013-03-21 20:48:00,
2013-03-21 16:53:00,29.9,15.7,29.90,SSW,200,7.0,10.0,55,0.00,,---,0.00,VWS V14.00,2013-03-21 20:53:00,
2013-03-21 16:58:00,29.6,15.8,29.91,SW,231,0.0,7.0,56,0.00,,---,0.00,VWS V14.00,2013-03-21 20:58:00,
2013-03-21 17:03:00,29.3,15.1,29.91,SW,215,0.0,11.0,55,0.00,,---,0.00,VWS V14.00,2013-03-21 21:03:00,
2013-03-21 17:08:00,29.2,15.9,29.90,West,269,0.0,8.0,57,0.00,,---,0.00,VWS V14.00,2013-03-21 21:08:00,
2013-03-21 17:13:00,29.3,15.6,29.90,WSW,252,7.0,7.0,56,0.00,,---,0.00,VWS V14.00,2013-03-21 21:13:00,
2013-03-21 17:18:00,29.3,15.6,29.91,SW,215,0.0,10.0,56,0.00,,---,0.00,VWS V14.00,2013-03-21 21:18:00,
2013-03-21 17:23:00,29.2,15.5,29.91,NW,306,2.0,9.0,56,0.00,,---,0.00,VWS V14.00,2013-03-21 21:23:00,
2013-03-21 17:28:00,29.1,15.4,29.91,West,265,1.0,10.0,56,0.00,,---,0.00,VWS V14.00,2013-03-21 21:28:00,
2013-03-21 17:33:00,29.1,15.4,29.91,WNW,290,2.0,6.0,56,0.00,,---,0.00,VWS V14.00,2013-03-21 21:33:00,
2013-03-21 17:38:00,29.2,15.9,29.90,WSW,244,2.0,13.0,57,0.00,,---,0.00,VWS V14.00,2013-03-21 21:38:00,
2013-03-21 17:43:00,29.1,15.8,29.90,SSW,213,1.0,7.0,57,0.00,,---,0.00,VWS V14.00,2013-03-21 21:43:00,
2013-03-21 17:48:00,29.3,16.4,29.90,WNW,284,1.0,7.0,58,0.00,,---,0.00,VWS V14.00,2013-03-21 21:48:00,
2013-03-21 17:53:00,29.5,16.6,29.90,SSW,205,2.0,7.0,58,0.00,,---,0.00,VWS V14.00,2013-03-21 21:53:00,
2013-03-21 17:58:00,29.6,15.8,29.90,WNW,285,0.0,9.0,56,0.00,,---,0.00,VWS V14.00,2013-03-21 21:58:00,
2013-03-21 18:03:00,29.5,15.8,29.91,WSW,253,1.0,10.0,56,0.00,,---,0.00,VWS V14.00,2013-03-21 22:03:00,
2013-03-21 18:08:00,29.2,15.9,29.91,WSW,250,0.0,4.0,57,0.00,,---,0.00,VWS V14.00,2013-03-21 22:08:00,
2013-03-21 18:13:00,29.0,15.7,29.91,WNW,296,2.0,10.0,57,0.00,,---,0.00,VWS V14.00,2013-03-21 22:13:00,
2013-03-21 18:18:00,28.8,15.9,29.91,WSW,242,8.0,11.0,58,0.00,,---,0.00,VWS V14.00,2013-03-21 22:18:00,
2013-03-21 18:23:00,28.6,15.7,29.91,West,281,0.0,7.0,58,0.00,,---,0.00,VWS V14.00,2013-03-21 22:23:00,
2013-03-21 18:28:00,28.5,15.6,29.91,West,281,2.0,4.0,58,0.00,,---,0.00,VWS V14.00,2013-03-21 22:28:00,
2013-03-21 18:33:00,28.5,16.0,29.92,SSW,194,0.0,7.0,59,0.00,,---,0.00,VWS V14.00,2013-03-21 22:33:00,
2013-03-21 18:38:00,28.4,15.9,29.92,West,264,3.0,6.0,59,0.00,,---,0.00,VWS V14.00,2013-03-21 22:38:00,
2013-03-21 18:43:00,28.4,15.9,29.92,WNW,284,0.0,3.0,59,0.00,,---,0.00,VWS V14.00,2013-03-21 22:43:00,
2013-03-21 18:48:00,28.4,16.3,29.92,WSW,251,1.0,5.0,60,0.00,,---,0.00,VWS V14.00,2013-03-21 22:48:00,
2013-03-21 18:53:00,28.3,16.2,29.92,SW,230,0.0,5.0,60,0.00,,---,0.00,VWS V14.00,2013-03-21 22:53:00,
2013-03-21 18:58:00,28.3,16.2,29.92,WNW,286,1.0,5.0,60,0.00,,---,0.00,VWS V14.00,2013-03-21 22:58:00,
2013-03-21 19:03:00,28.3,16.6,29.92,West,262,0.0,5.0,61,0.00,,---,0.00,VWS V14.00,2013-03-21 23:03:00,
2013-03-21 19:08:00,28.3,16.6,29.92,West,281,2.0,7.0,61,0.00,,---,0.00,VWS V14.00,2013-03-21 23:08:00,
2013-03-21 19:13:00,28.3,17.0,29.92,WNW,302,3.0,5.0,62,0.00,,---,0.00,VWS V14.00,2013-03-21 23:13:00,
2013-03-21 19:18:00,28.2,16.9,29.92,West,277,0.0,6.0,62,0.00,,---,0.00,VWS V14.00,2013-03-21 23:18:00,
2013-03-21 19:23:00,28.2,16.9,29.93,West,275,0.0,8.0,62,0.00,,---,0.00,VWS V14.00,2013-03-21 23:23:00,
2013-03-21 19:28:00,28.1,17.1,29.92,WNW,287,0.0,4.0,63,0.00,,---,0.00,VWS V14.00,2013-03-21 23:28:00,
2013-03-21 19:33:00,28.1,17.1,29.93,West,271,1.0,8.0,63,0.00,,---,0.00,VWS V14.00,2013-03-21 23:33:00,
2013-03-21 19:38:00,28.1,17.5,29.93,SW,215,0.0,8.0,64,0.00,,---,0.00,VWS V14.00,2013-03-21 23:38:00,
2013-03-21 19:43:00,28.1,17.5,29.93,NW,319,2.0,11.0,64,0.00,,---,0.00,VWS V14.00,2013-03-21 23:43:00,
2013-03-21 19:48:00,28.0,17.8,29.93,WSW,250,2.0,10.0,65,0.00,,---,0.00,VWS V14.00,2013-03-21 23:48:00,
2013-03-21 19:53:00,28.0,17.8,29.93,West,267,0.0,7.0,65,0.00,,---,0.00,VWS V14.00,2013-03-21 23:53:00,
2013-03-21 19:58:00,27.9,18.0,29.93,NW,305,1.0,8.0,66,0.00,,---,0.00,VWS V14.00,2013-03-21 23:58:00,
2013-03-21 20:03:00,27.9,18.0,29.93,WSW,252,0.0,6.0,66,0.00,,---,0.00,VWS V14.00,2013-03-22 00:03:00,
2013-03-21 20:08:00,27.9,18.4,29.93,WNW,302,4.0,5.0,67,0.00,,---,0.00,VWS V14.00,2013-03-22 00:08:00,
2013-03-21 20:13:00,27.8,18.6,29.93,SW,216,0.0,4.0,68,0.00,,---,0.00,VWS V14.00,2013-03-22 00:13:00,
2013-03-21 20:18:00,27.8,18.6,29.93,SSW,192,0.0,4.0,68,0.00,,---,0.00,VWS V14.00,2013-03-22 00:18:00,
2013-03-21 20:23:00,27.7,18.9,29.93,West,261,0.0,5.0,69,0.00,,---,0.00,VWS V14.00,2013-03-22 00:23:00,
2013-03-21 20:28:00,27.6,18.8,29.93,NW,326,0.0,4.0,69,0.00,,---,0.00,VWS V14.00,2013-03-22 00:28:00,
2013-03-21 20:33:00,27.5,19.0,29.93,WSW,238,1.0,6.0,70,0.00,,---,0.00,VWS V14.00,2013-03-22 00:33:00,
2013-03-21 20:38:00,27.5,19.0,29.93,West,279,0.0,7.0,70,0.00,,---,0.00,VWS V14.00,2013-03-22 00:38:00,
2013-03-21 20:43:00,27.4,19.2,29.93,West,266,0.0,3.0,71,0.00,,---,0.00,VWS V14.00,2013-03-22 00:43:00,
2013-03-21 20:48:00,27.3,19.1,29.94,West,269,0.0,5.0,71,0.00,,---,0.00,VWS V14.00,2013-03-22 00:48:00,
2013-03-21 20:53:00,27.2,19.1,29.94,West,259,1.0,9.0,71,0.00,,---,0.00,VWS V14.00,2013-03-22 00:53:00,
2013-03-21 20:58:00,27.2,19.4,29.94,West,271,0.0,6.0,72,0.00,,---,0.00,VWS V14.00,2013-03-22 00:58:00,
2013-03-21 21:03:00,27.1,19.3,29.94,SW,228,1.0,3.0,72,0.00,,---,0.00,VWS V14.00,2013-03-22 01:03:00,
2013-03-21 21:08:00,27.1,19.3,29.94,SSE,167,1.0,4.0,72,0.00,,---,0.00,VWS V14.00,2013-03-22 01:08:00,
2013-03-21 21:13:00,27.1,19.6,29.94,WNW,284,0.0,2.0,73,0.00,,---,0.00,VWS V14.00,2013-03-22 01:13:00,
2013-03-21 21:18:00,27.0,19.5,29.94,SW,221,2.0,4.0,73,0.00,,---,0.00,VWS V14.00,2013-03-22 01:18:00,
2013-03-21 21:23:00,27.0,19.5,29.93,WNW,293,0.0,2.0,73,0.00,,---,0.00,VWS V14.00,2013-03-22 01:23:00,
2013-03-21 21:28:00,27.0,19.5,29.94,WSW,246,0.0,4.0,73,0.00,,---,0.00,VWS V14.00,2013-03-22 01:28:00,
2013-03-21 21:33:00,27.0,19.5,29.94,WSW,254,1.0,5.0,73,0.00,,---,0.00,VWS V14.00,2013-03-22 01:33:00,
2013-03-21 21:38:00,27.0,19.8,29.94,SSW,194,0.0,5.0,74,0.00,,---,0.00,VWS V14.00,2013-03-22 01:38:00,
2013-03-21 21:43:00,27.0,19.8,29.94,WSW,238,2.0,5.0,74,0.00,,---,0.00,VWS V14.00,2013-03-22 01:43:00,
2013-03-21 21:48:00,27.0,19.8,29.94,WSW,243,0.0,2.0,74,0.00,,---,0.00,VWS V14.00,2013-03-22 01:48:00,
2013-03-21 21:53:00,27.1,19.9,29.94,SSW,203,0.0,3.0,74,0.00,,---,0.00,VWS V14.00,2013-03-22 01:53:00,
2013-03-21 21:58:00,27.1,20.2,29.94,West,271,0.0,6.0,75,0.00,,---,0.00,VWS V14.00,2013-03-22 01:58:00,
2013-03-21 22:03:00,27.1,20.2,29.94,WSW,257,0.0,5.0,75,0.00,,---,0.00,VWS V14.00,2013-03-22 02:03:00,
2013-03-21 22:08:00,27.2,20.3,29.94,SSW,196,3.0,5.0,75,0.00,,---,0.00,VWS V14.00,2013-03-22 02:08:00,
2013-03-21 22:13:00,27.2,20.3,29.94,WNW,298,0.0,7.0,75,0.00,,---,0.00,VWS V14.00,2013-03-22 02:13:00,
2013-03-21 22:18:00,27.2,20.6,29.94,West,279,0.0,4.0,76,0.00,,---,0.00,VWS V14.00,2013-03-22 02:18:00,
2013-03-21 22:23:00,27.3,20.8,29.94,West,275,5.0,5.0,76,0.00,,---,0.00,VWS V14.00,2013-03-22 02:23:00,
2013-03-21 22:28:00,27.2,20.6,29.94,WNW,287,1.0,4.0,76,0.00,,---,0.00,VWS V14.00,2013-03-22 02:28:00,
2013-03-21 22:33:00,27.3,20.8,29.95,WNW,303,0.0,2.0,76,0.00,,---,0.00,VWS V14.00,2013-03-22 02:33:00,
2013-03-21 22:38:00,27.3,20.8,29.95,WNW,296,2.0,2.0,76,0.00,,---,0.00,VWS V14.00,2013-03-22 02:38:00,
2013-03-21 22:43:00,27.3,20.8,29.95,West,269,0.0,3.0,76,0.00,,---,0.00,VWS V14.00,2013-03-22 02:43:00,
2013-03-21 22:48:00,27.3,20.8,29.95,SSE,167,0.0,5.0,76,0.00,,---,0.00,VWS V14.00,2013-03-22 02:48:00,
2013-03-21 22:53:00,27.3,20.8,29.95,SW,229,1.0,5.0,76,0.00,,---,0.00,VWS V14.00,2013-03-22 02:53:00,
2013-03-21 22:58:00,27.3,20.8,29.95,NW,305,0.0,4.0,76,0.00,,---,0.00,VWS V14.00,2013-03-22 02:58:00,
2013-03-21 23:03:00,27.4,20.8,29.95,NNW,331,6.0,10.0,76,0.00,,---,0.00,VWS V14.00,2013-03-22 03:03:00,
2013-03-21 23:08:00,27.4,20.8,29.95,WSW,238,2.0,7.0,76,0.00,,---,0.00,VWS V14.00,2013-03-22 03:08:00,
2013-03-21 23:13:00,27.4,20.8,29.96,WSW,258,0.0,5.0,76,0.00,,---,0.00,VWS V14.00,2013-03-22 03:13:00,
2013-03-21 23:18:00,27.4,20.8,29.95,SSW,195,0.0,7.0,76,0.00,,---,0.00,VWS V14.00,2013-03-22 03:18:00,
2013-03-21 23:23:00,27.5,20.9,29.95,South,188,4.0,12.0,76,0.00,,---,0.00,VWS V14.00,2013-03-22 03:23:00,
2013-03-21 23:28:00,27.4,21.1,29.95,SSW,194,0.0,6.0,77,0.00,,---,0.00,VWS V14.00,2013-03-22 03:28:00,
2013-03-21 23:33:00,27.4,21.1,29.95,SW,214,0.0,5.0,77,0.00,,---,0.00,VWS V14.00,2013-03-22 03:33:00,
2013-03-21 23:38:00,27.4,21.5,29.95,SW,214,0.0,1.0,78,0.00,,---,0.00,VWS V14.00,2013-03-22 03:38:00,
2013-03-21 23:43:00,27.3,21.1,29.96,SW,219,0.0,5.0,77,0.00,,---,0.00,VWS V14.00,2013-03-22 03:43:00,
2013-03-21 23:48:00,27.3,21.1,29.95,WSW,241,0.0,3.0,77,0.00,,---,0.00,VWS V14.00,2013-03-22 03:48:00,
2013-03-21 23:54:00,27.3,21.4,29.95,West,271,5.0,6.0,78,0.00,,---,0.00,VWS V14.00,2013-03-22 03:54:00,
2013-03-21 23:59:00,27.3,21.4,29.95,WSW,246,0.0,7.0,78,0.00,,---,0.00,VWS V14.00,2013-03-22 03:59:00,